Time;durP1;ratioP1;P1;durP2;ratioP2;P2;SDS_P1;SDS_P2;PMS_P1;PMS_P2;Temp;Humidity;BMP_temperature;BMP_pressure;BME280_temperature;BME280_humidity;BME280_pressure;Samples;Min_cycle;Max_cycle;Signal;HPM_P1;HPM_P2
2022/01/20 00:01:06;;;;;;;30.23;17.80;;;1.40;98.30;;;;;;5082631;28;20032;-73
2022/01/20 00:03:34;;;;;;;31.52;15.75;;;1.30;98.40;;;;;;5082242;28;20347;-73
2022/01/20 00:28:11;;;;;;;30.10;14.37;;;1.40;99.00;;;;;;5085384;28;20042;-73
2022/01/20 00:38:20;;;;;;;28.08;14.85;;;1.30;99.10;;;;;;5088646;28;20028;-74
2022/01/20 00:40:46;;;;;;;25.17;15.18;;;1.30;99.10;;;;;;5088777;28;20398;-74
2022/01/20 00:43:11;;;;;;;26.30;14.43;;;1.40;98.90;;;;;;5087120;28;20035;-73
2022/01/20 00:45:37;;;;;;;30.35;15.38;;;1.40;98.90;;;;;;5089380;28;20032;-73
2022/01/20 00:48:03;;;;;;;27.42;16.50;;;1.40;98.90;;;;;;5088873;28;20103;-73
2022/01/20 00:50:28;;;;;;;31.83;17.17;;;1.30;99.00;;;;;;5089038;28;20074;-73
2022/01/20 00:52:54;;;;;;;28.65;14.52;;;1.20;99.20;;;;;;5086672;28;20028;-73
2022/01/20 00:55:20;;;;;;;25.17;14.43;;;1.10;99.20;;;;;;5088700;28;20029;-73
2022/01/20 00:57:46;;;;;;;25.67;14.73;;;1.10;99.10;;;;;;5088835;28;20024;-73
2022/01/20 01:00:14;;;;;;;25.95;14.27;;;1.00;99.30;;;;;;5087522;28;20032;-73
2022/01/20 01:02:40;;;;;;;28.98;15.57;;;1.00;99.60;;;;;;5089010;28;20043;-73
2022/01/20 01:05:07;;;;;;;27.05;15.38;;;1.10;99.70;;;;;;5089130;28;20058;-73
2022/01/20 01:09:58;;;;;;;29.33;16.08;;;1.40;99.10;;;;;;5088863;28;20040;-73
2022/01/20 01:12:47;;;;;;;25.67;15.90;;;1.30;98.90;;;;;;5086038;28;20383;-74
2022/01/20 01:15:21;;;;;;;28.33;14.20;;;1.30;98.90;;;;;;5088502;28;20037;-73
2022/01/20 01:20:45;;;;;;;27.77;14.38;;;1.10;99.10;;;;;;5086169;28;20529;-73
2022/01/20 01:23:12;;;;;;;26.63;15.52;;;1.10;99.30;;;;;;5089923;28;20040;-73
2022/01/20 01:25:37;;;;;;;25.17;14.23;;;1.20;99.30;;;;;;5088093;28;20071;-73
2022/01/20 01:28:03;;;;;;;33.15;15.70;;;1.10;99.20;;;;;;5089207;28;20072;-73
2022/01/20 01:33:22;;;;;;;27.55;14.75;;;1.00;99.90;;;;;;5074801;28;20040;-73
2022/01/20 01:35:55;;;;;;;25.38;16.00;;;1.10;99.70;;;;;;5093969;28;20020;-73
2022/01/20 01:38:36;;;;;;;25.35;15.60;;;1.20;99.60;;;;;;5097109;28;20024;-73
2022/01/20 01:41:15;;;;;;;26.30;15.45;;;1.20;99.50;;;;;;5094364;28;21037;-73
2022/01/20 01:43:44;;;;;;;29.50;15.13;;;1.20;99.40;;;;;;5095345;28;20059;-73
2022/01/20 01:46:12;;;;;;;30.10;15.93;;;1.20;99.60;;;;;;5093864;28;20552;-73
2022/01/20 01:48:40;;;;;;;35.08;16.73;;;1.10;99.70;;;;;;5096468;28;20031;-73
2022/01/20 01:51:06;;;;;;;28.38;13.60;;;1.10;99.80;;;;;;5094957;28;20024;-73
2022/01/20 01:53:33;;;;;;;30.95;16.25;;;1.20;99.70;;;;;;5092586;28;20390;-73
2022/01/20 01:55:58;;;;;;;33.20;16.10;;;1.20;99.50;;;;;;5095470;28;20031;-73
2022/01/20 01:58:24;;;;;;;29.88;16.52;;;1.20;99.60;;;;;;5094073;28;20020;-73
2022/01/20 02:00:50;;;;;;;33.03;17.17;;;1.10;99.60;;;;;;5095566;28;20032;-73
2022/01/20 02:03:16;;;;;;;28.17;16.05;;;0.90;99.90;;;;;;5077825;28;20521;-73
2022/01/20 02:19:09;;;;;;;28.30;16.08;;;1.00;99.90;;;;;;5094062;28;20587;-73
2022/01/20 02:21:45;;;;;;;30.30;17.42;;;1.00;99.90;;;;;;5095658;28;20111;-73
2022/01/20 02:24:10;;;;;;;28.27;15.70;;;0.90;99.90;;;;;;5094308;28;20028;-73
2022/01/20 02:26:36;;;;;;;32.38;15.88;;;0.70;99.90;;;;;;5093618;28;20073;-73
2022/01/20 02:29:02;;;;;;;34.65;17.42;;;0.80;99.90;;;;;;5095319;28;20055;-73
2022/01/20 02:31:27;;;;;;;33.08;16.48;;;1.00;99.90;;;;;;5094482;28;20031;-73
2022/01/20 02:33:54;;;;;;;26.73;16.05;;;1.10;99.90;;;;;;5095459;28;20027;-73
2022/01/20 02:36:20;;;;;;;35.03;18.30;;;1.30;99.90;;;;;;5094513;28;20448;-73
2022/01/20 02:38:54;;;;;;;32.58;17.80;;;1.50;99.90;;;;;;5094117;28;20043;-73
2022/01/20 02:46:48;;;;;;;29.38;15.35;;;1.50;99.70;;;;;;5084740;28;20105;-73
2022/01/20 02:49:15;;;;;;;29.73;16.33;;;1.40;99.90;;;;;;5092796;28;20036;-73
2022/01/20 02:51:55;;;;;;;25.25;16.17;;;1.30;99.90;;;;;;5092088;28;20097;-73
2022/01/20 02:54:22;;;;;;;26.13;15.50;;;1.20;99.90;;;;;;5089263;28;20036;-73
2022/01/20 02:56:48;;;;;;;32.50;16.20;;;1.00;99.90;;;;;;5091146;28;20071;-73
2022/01/20 02:59:14;;;;;;;29.02;16.30;;;1.00;99.90;;;;;;5074341;28;20461;-73
2022/01/20 03:01:40;;;;;;;33.45;16.13;;;1.00;99.90;;;;;;5090950;28;20119;-73
2022/01/20 03:04:06;;;;;;;30.45;15.88;;;1.10;99.90;;;;;;5091474;28;20031;-73
2022/01/20 03:06:31;;;;;;;24.80;15.20;;;0.90;99.90;;;;;;5091387;28;20071;-73
2022/01/20 03:08:57;;;;;;;28.63;14.95;;;0.70;99.90;;;;;;5092161;28;20028;-74
2022/01/20 03:11:23;;;;;;;27.00;15.05;;;0.60;99.90;;;;;;5086131;28;20028;-73
2022/01/20 03:13:48;;;;;;;27.73;15.05;;;0.70;99.90;;;;;;5089731;28;20035;-73
2022/01/20 03:16:14;;;;;;;24.50;14.40;;;0.80;99.90;;;;;;5089701;28;20032;-73
2022/01/20 03:18:40;;;;;;;30.27;14.15;;;1.00;99.90;;;;;;5090670;28;20035;-73
2022/01/20 03:21:05;;;;;;;26.02;13.52;;;1.00;99.90;;;;;;5091135;28;20040;-73
2022/01/20 03:23:31;;;;;;;26.88;15.15;;;0.90;99.90;;;;;;5088998;28;20031;-73
2022/01/20 03:25:57;;;;;;;23.45;12.13;;;1.00;99.90;;;;;;5091145;28;20028;-73
2022/01/20 03:28:23;;;;;;;27.83;14.02;;;1.20;99.70;;;;;;5091291;28;20059;-73
2022/01/20 03:30:48;;;;;;;20.25;12.23;;;1.40;99.90;;;;;;5090562;28;20024;-73
2022/01/20 03:33:14;;;;;;;21.83;12.15;;;1.40;99.70;;;;;;5090502;28;20374;-73
2022/01/20 03:35:42;;;;;;;24.50;12.95;;;1.30;99.30;;;;;;5091057;28;20492;-73
2022/01/20 03:38:09;;;;;;;23.95;12.68;;;1.00;99.70;;;;;;5091231;28;20016;-73
2022/01/20 03:40:35;;;;;;;26.63;13.32;;;1.00;99.90;;;;;;5090474;28;20051;-73
2022/01/20 03:43:00;;;;;;;23.13;12.45;;;0.90;99.90;;;;;;5090562;28;20020;-73
2022/01/20 03:45:28;;;;;;;21.83;12.45;;;0.90;99.90;;;;;;5089624;28;20064;-73
2022/01/20 03:47:58;;;;;;;23.85;12.15;;;1.00;99.90;;;;;;5090159;28;20012;-73
2022/01/20 03:53:08;;;;;;;20.65;11.85;;;1.10;99.90;;;;;;5088527;28;20158;-73
2022/01/20 03:55:34;;;;;;;19.60;10.88;;;1.10;99.80;;;;;;5089543;28;20115;-73
2022/01/20 03:58:00;;;;;;;15.30;8.48;;;1.30;98.70;;;;;;5089945;28;20565;-73
2022/01/20 04:00:26;;;;;;;17.98;9.63;;;1.40;98.00;;;;;;5071520;28;20038;-73
2022/01/20 04:02:52;;;;;;;15.52;9.07;;;1.00;98.10;;;;;;5085338;28;20055;-73
2022/01/20 04:05:17;;;;;;;15.60;8.38;;;0.80;98.80;;;;;;5080182;28;20112;-73
2022/01/20 04:07:43;;;;;;;21.25;10.50;;;0.50;99.40;;;;;;5082411;28;20172;-73
2022/01/20 04:10:09;;;;;;;16.33;9.35;;;0.80;99.90;;;;;;5080922;28;20031;-73
2022/01/20 04:12:35;;;;;;;12.68;6.97;;;0.90;99.30;;;;;;5081666;28;20032;-73
2022/01/20 04:15:07;;;;;;;11.00;6.95;;;1.20;97.80;;;;;;5080969;28;20030;-73
2022/01/20 04:17:35;;;;;;;15.73;7.18;;;1.50;97.20;;;;;;5064541;28;20035;-73
2022/01/20 04:20:03;;;;;;;11.75;5.80;;;1.40;96.80;;;;;;5082386;28;20024;-73
2022/01/20 04:22:30;;;;;;;13.02;7.28;;;1.60;96.20;;;;;;5083136;28;20032;-72
2022/01/20 04:24:56;;;;;;;15.10;7.25;;;1.70;96.10;;;;;;5084207;28;20073;-74
2022/01/20 04:27:22;;;;;;;12.85;7.05;;;1.60;96.20;;;;;;5084017;28;20186;-73
2022/01/20 04:29:47;;;;;;;15.70;7.38;;;1.20;96.80;;;;;;5084221;28;20036;-72
2022/01/20 04:32:14;;;;;;;14.07;7.40;;;1.30;96.80;;;;;;5084732;28;20024;-73
2022/01/20 04:34:39;;;;;;;18.42;7.78;;;1.20;97.10;;;;;;5085226;28;20032;-73
2022/01/20 04:37:06;;;;;;;12.80;6.78;;;1.10;97.10;;;;;;5083684;28;20024;-73
2022/01/20 04:39:35;;;;;;;12.90;6.53;;;1.30;96.50;;;;;;5084086;28;20031;-73
2022/01/20 04:42:01;;;;;;;12.68;6.28;;;1.50;96.00;;;;;;5081133;28;20993;-73
2022/01/20 04:44:38;;;;;;;13.80;5.90;;;1.50;95.90;;;;;;5086039;28;20032;-73
2022/01/20 04:57:58;;;;;;;13.85;7.40;;;0.90;96.90;;;;;;5081911;28;20615;-73
2022/01/20 05:00:24;;;;;;;11.18;5.25;;;0.90;97.50;;;;;;5079257;28;20037;-73
2022/01/20 05:02:49;;;;;;;13.38;6.13;;;1.00;97.20;;;;;;5078519;28;20109;-73
2022/01/20 05:05:15;;;;;;;11.75;6.40;;;1.10;96.80;;;;;;5077645;28;20923;-73
2022/01/20 05:07:41;;;;;;;8.93;5.18;;;1.20;96.80;;;;;;5061135;28;20067;-73
2022/01/20 05:10:11;;;;;;;10.45;5.25;;;1.20;96.50;;;;;;5080733;28;20024;-73
2022/01/20 05:13:22;;;;;;;9.02;4.75;;;1.50;95.60;;;;;;5080724;28;20032;-73
2022/01/20 05:15:26;;;;;;;10.20;5.30;;;1.60;95.30;;;;;;5068732;28;20054;-73
2022/01/20 05:17:53;;;;;;;14.88;7.20;;;1.60;95.30;;;;;;5080882;28;20024;-73
2022/01/20 05:20:21;;;;;;;11.38;6.70;;;0.90;96.50;;;;;;5081062;28;20497;-73
2022/01/20 05:22:47;;;;;;;14.35;6.97;;;0.70;97.20;;;;;;5081066;28;20120;-73
2022/01/20 05:25:13;;;;;;;25.13;11.07;;;0.70;97.30;;;;;;5079455;28;20115;-73
2022/01/20 05:27:39;;;;;;;16.58;7.80;;;0.80;97.40;;;;;;5080997;28;20480;-73
2022/01/20 05:30:05;;;;;;;13.75;6.63;;;0.70;97.80;;;;;;5061172;28;20044;-73
2022/01/20 05:32:31;;;;;;;13.65;6.35;;;0.50;97.90;;;;;;5080918;28;20036;-73
2022/01/20 05:34:57;;;;;;;12.95;6.57;;;0.60;98.00;;;;;;5082856;28;20085;-73
2022/01/20 05:37:23;;;;;;;9.07;5.45;;;0.80;97.70;;;;;;5081214;28;20071;-73
2022/01/20 05:39:48;;;;;;;10.45;5.55;;;1.00;97.20;;;;;;5081446;28;20028;-73
2022/01/20 05:42:14;;;;;;;10.65;6.00;;;1.10;96.80;;;;;;5081017;28;20786;-73
2022/01/20 05:44:40;;;;;;;12.40;6.55;;;1.20;96.60;;;;;;5079403;28;20040;-72
2022/01/20 05:47:10;;;;;;;11.07;6.00;;;0.80;97.20;;;;;;5062084;28;20028;-73
2022/01/20 05:49:36;;;;;;;12.27;5.38;;;0.70;97.50;;;;;;5080571;28;20016;-72
2022/01/20 05:52:03;;;;;;;14.63;6.53;;;0.90;97.30;;;;;;5080125;28;20472;-73
2022/01/20 05:54:29;;;;;;;11.05;5.28;;;0.90;97.70;;;;;;5079855;28;20097;-73
2022/01/20 05:56:55;;;;;;;11.70;5.07;;;1.00;97.10;;;;;;5059962;28;20131;-73
2022/01/20 05:59:21;;;;;;;9.38;5.20;;;1.30;96.30;;;;;;5081662;28;20115;-73
2022/01/20 06:01:53;;;;;;;10.38;4.93;;;1.50;95.90;;;;;;5076236;28;20485;-73
2022/01/20 06:04:19;;;;;;;11.15;6.80;;;1.50;95.80;;;;;;5078941;28;20016;-72
2022/01/20 06:06:44;;;;;;;12.68;6.95;;;0.90;96.50;;;;;;5080936;28;20373;-73
2022/01/20 06:09:10;;;;;;;14.80;6.30;;;0.60;97.60;;;;;;5081254;28;20056;-73
2022/01/20 06:11:39;;;;;;;13.07;7.22;;;0.60;97.70;;;;;;5079690;28;20689;-72
2022/01/20 06:14:05;;;;;;;12.63;6.05;;;0.60;97.90;;;;;;5080395;28;20032;-73
2022/01/20 06:16:31;;;;;;;12.85;6.15;;;0.50;98.00;;;;;;5081260;28;20041;-73
2022/01/20 06:18:57;;;;;;;11.43;6.05;;;0.50;98.50;;;;;;5058347;28;20036;-73
2022/01/20 06:21:23;;;;;;;13.35;6.85;;;0.50;98.50;;;;;;5083732;28;20146;-73
2022/01/20 06:23:49;;;;;;;15.38;6.40;;;0.50;98.40;;;;;;5084394;28;20032;-73
2022/01/20 06:26:15;;;;;;;11.82;5.88;;;0.50;98.10;;;;;;5087366;28;20040;-72
2022/01/20 06:28:41;;;;;;;11.18;6.55;;;0.70;97.80;;;;;;5087356;28;20421;-73
2022/01/20 06:31:07;;;;;;;10.32;6.05;;;0.70;97.90;;;;;;5083794;28;20393;-71
2022/01/20 06:33:32;;;;;;;9.35;5.40;;;0.70;97.80;;;;;;5082890;28;20027;-73
2022/01/20 06:35:59;;;;;;;14.48;6.32;;;0.70;98.20;;;;;;5087456;28;20081;-72
2022/01/20 06:38:25;;;;;;;10.95;5.68;;;0.70;98.10;;;;;;5082349;28;20024;-72
2022/01/20 06:40:50;;;;;;;14.35;6.63;;;0.60;98.10;;;;;;5084773;28;20095;-72
2022/01/20 06:43:16;;;;;;;13.10;6.13;;;0.40;98.20;;;;;;5084238;28;20027;-74
2022/01/20 06:45:43;;;;;;;11.43;5.47;;;0.30;98.50;;;;;;5084077;28;20032;-72
2022/01/20 06:48:09;;;;;;;13.10;7.05;;;0.30;98.60;;;;;;5082034;28;20131;-71
2022/01/20 06:50:35;;;;;;;10.95;5.70;;;0.40;98.50;;;;;;5082586;28;20573;-72
2022/01/20 06:53:01;;;;;;;12.90;6.22;;;0.40;98.50;;;;;;5083286;28;20023;-72
2022/01/20 06:55:26;;;;;;;12.70;5.95;;;0.20;98.60;;;;;;5084417;28;20030;-71
2022/01/20 06:57:52;;;;;;;11.15;5.60;;;0.30;98.90;;;;;;5081986;28;20548;-72
2022/01/20 07:00:20;;;;;;;12.48;6.40;;;0.20;99.00;;;;;;5079692;28;20032;-71
2022/01/20 07:02:47;;;;;;;10.95;5.53;;;0.40;99.00;;;;;;5082825;28;20040;-71
2022/01/20 07:05:16;;;;;;;16.95;6.78;;;0.30;98.70;;;;;;5083179;28;20542;-72
2022/01/20 07:07:42;;;;;;;11.73;5.60;;;0.40;98.80;;;;;;5084382;28;20039;-72
2022/01/20 07:10:09;;;;;;;11.25;6.18;;;0.50;98.70;;;;;;5081030;28;20024;-72
2022/01/20 07:12:36;;;;;;;16.92;9.10;;;0.50;98.40;;;;;;5084440;28;20032;-70
2022/01/20 07:15:02;;;;;;;18.13;8.95;;;0.60;98.20;;;;;;5082830;28;20028;-73
2022/01/20 07:17:28;;;;;;;14.90;6.53;;;0.70;98.20;;;;;;5081916;28;20636;-73
2022/01/20 07:19:54;;;;;;;11.30;6.05;;;0.50;97.90;;;;;;5083632;28;20032;-73
2022/01/20 07:22:19;;;;;;;12.07;5.65;;;0.30;98.40;;;;;;5081657;28;20031;-73
2022/01/20 07:24:47;;;;;;;11.85;5.93;;;0.30;98.20;;;;;;5084390;28;20619;-73
2022/01/20 07:27:13;;;;;;;11.48;6.03;;;0.30;98.10;;;;;;5084461;28;20028;-73
2022/01/20 07:29:39;;;;;;;13.00;5.95;;;0.40;98.00;;;;;;5084666;28;20048;-73
2022/01/20 07:32:06;;;;;;;10.05;5.72;;;0.50;97.90;;;;;;5083799;28;20085;-73
2022/01/20 07:34:33;;;;;;;9.30;5.53;;;0.50;97.80;;;;;;5082260;28;20101;-73
2022/01/20 07:37:00;;;;;;;8.98;4.93;;;0.40;97.70;;;;;;5082422;28;20115;-73
2022/01/20 07:39:26;;;;;;;8.65;5.35;;;0.40;97.80;;;;;;5084366;28;20024;-73
2022/01/20 07:41:52;;;;;;;12.07;5.53;;;0.30;97.80;;;;;;5083620;28;20507;-73
2022/01/20 07:44:19;;;;;;;15.52;7.35;;;0.40;98.00;;;;;;5084049;28;20024;-73
2022/01/20 07:46:46;;;;;;;12.80;6.38;;;0.30;97.90;;;;;;5082210;28;20024;-73
2022/01/20 07:49:12;;;;;;;11.20;5.30;;;0.40;97.80;;;;;;5082484;28;20036;-73
2022/01/20 07:51:37;;;;;;;9.40;5.18;;;0.20;98.00;;;;;;5083161;28;20032;-72
2022/01/20 07:54:03;;;;;;;16.92;5.72;;;0.30;98.10;;;;;;5081746;28;20482;-70
2022/01/20 07:56:29;;;;;;;10.82;4.85;;;0.30;98.00;;;;;;5082966;28;20032;-73
2022/01/20 07:58:55;;;;;;;12.85;5.97;;;0.30;97.90;;;;;;5082335;28;20115;-73
2022/01/20 08:01:24;;;;;;;12.05;5.80;;;0.40;97.90;;;;;;5080513;28;20043;-72
2022/01/20 08:03:53;;;;;;;11.15;5.18;;;0.40;97.80;;;;;;5082214;28;20016;-73
2022/01/20 08:06:22;;;;;;;8.50;5.03;;;0.50;97.60;;;;;;5083021;28;20028;-73
2022/01/20 08:08:50;;;;;;;13.38;6.32;;;0.50;97.60;;;;;;5083260;28;20027;-73
2022/01/20 08:11:17;;;;;;;9.10;4.68;;;0.50;97.80;;;;;;5084513;28;20028;-72
2022/01/20 08:13:43;;;;;;;9.98;5.85;;;0.60;97.40;;;;;;5082609;28;20062;-73
2022/01/20 08:16:08;;;;;;;10.77;5.20;;;0.80;97.10;;;;;;5082375;28;20474;-73
2022/01/20 08:18:34;;;;;;;10.73;6.00;;;0.80;97.10;;;;;;5083065;28;20036;-73
2022/01/20 08:21:00;;;;;;;11.40;5.95;;;1.00;97.10;;;;;;5082860;28;20405;-73
2022/01/20 08:23:25;;;;;;;9.80;5.22;;;1.00;97.40;;;;;;5079385;28;20883;-73
2022/01/20 08:25:51;;;;;;;10.85;4.75;;;1.10;97.30;;;;;;5080583;28;20036;-73
2022/01/20 08:28:20;;;;;;;12.90;6.43;;;0.90;97.70;;;;;;5083672;28;20078;-73
2022/01/20 08:30:46;;;;;;;12.68;5.82;;;1.00;97.80;;;;;;5082437;28;20102;-73
2022/01/20 08:33:12;;;;;;;13.45;6.07;;;1.00;97.70;;;;;;5079577;28;20055;-73
2022/01/20 08:35:39;;;;;;;10.40;5.78;;;1.00;97.60;;;;;;5080694;28;20067;-73
2022/01/20 08:38:06;;;;;;;12.43;5.32;;;0.90;97.40;;;;;;5082524;28;20488;-73
2022/01/20 08:40:33;;;;;;;13.00;5.80;;;1.10;97.00;;;;;;5080984;28;20035;-73
2022/01/20 08:42:59;;;;;;;13.30;6.50;;;1.10;96.90;;;;;;5082181;28;20051;-73
2022/01/20 08:45:29;;;;;;;10.55;6.38;;;1.00;97.10;;;;;;5082999;28;20032;-73
2022/01/20 08:47:56;;;;;;;10.50;5.35;;;1.10;97.30;;;;;;5081395;28;20082;-73
2022/01/20 08:50:25;;;;;;;11.63;5.90;;;1.10;97.60;;;;;;5083528;28;20042;-73
2022/01/20 08:52:51;;;;;;;12.77;5.90;;;1.30;97.50;;;;;;5082722;28;20475;-73
2022/01/20 08:55:17;;;;;;;9.57;5.32;;;1.30;96.70;;;;;;5081541;28;20028;-73
2022/01/20 08:57:44;;;;;;;10.93;5.30;;;1.40;96.40;;;;;;5083626;28;20038;-73
2022/01/20 09:00:11;;;;;;;11.45;6.25;;;1.40;96.20;;;;;;5083119;28;20032;-74
2022/01/20 09:02:37;;;;;;;14.38;7.35;;;1.40;96.30;;;;;;5083462;28;20040;-74
2022/01/20 09:05:04;;;;;;;12.82;5.60;;;1.30;96.50;;;;;;5079309;28;20099;-74
2022/01/20 09:07:30;;;;;;;9.02;5.28;;;1.30;97.00;;;;;;5078731;28;20024;-74
2022/01/20 09:09:59;;;;;;;10.45;5.75;;;1.30;97.20;;;;;;5081831;28;20504;-74
2022/01/20 09:17:47;;;;;;;10.00;5.40;;;1.10;96.40;;;;;;5078660;28;20035;-74
2022/01/20 09:20:13;;;;;;;11.35;5.68;;;1.20;96.40;;;;;;5079246;28;20036;-74
2022/01/20 09:22:39;;;;;;;10.55;5.20;;;1.30;96.40;;;;;;5082899;28;20170;-74
2022/01/20 09:25:06;;;;;;;11.27;5.13;;;1.30;96.50;;;;;;5080017;28;20089;-74
2022/01/20 09:27:32;;;;;;;11.02;5.35;;;1.20;96.80;;;;;;5077960;28;20036;-73
2022/01/20 09:29:59;;;;;;;9.52;5.20;;;1.20;96.70;;;;;;5081188;28;20053;-72
2022/01/20 09:32:27;;;;;;;10.70;5.45;;;1.30;96.50;;;;;;5082081;28;20031;-72
2022/01/20 09:34:56;;;;;;;11.63;6.20;;;1.30;96.50;;;;;;5079656;28;20027;-72
2022/01/20 09:37:22;;;;;;;13.00;6.82;;;1.40;96.20;;;;;;5081230;28;20587;-72
2022/01/20 09:39:48;;;;;;;18.83;6.25;;;1.40;96.20;;;;;;5080657;28;20027;-72
2022/01/20 09:42:14;;;;;;;32.83;6.88;;;1.40;96.30;;;;;;5080126;28;20043;-73
2022/01/20 09:44:45;;;;;;;14.25;6.28;;;1.40;96.70;;;;;;5076843;28;20491;-73
2022/01/20 09:47:11;;;;;;;10.40;5.80;;;1.30;96.40;;;;;;5080404;28;20072;-72
2022/01/20 09:49:38;;;;;;;10.43;5.75;;;1.30;96.20;;;;;;5079913;28;20028;-73
2022/01/20 09:52:04;;;;;;;10.77;5.43;;;1.40;96.10;;;;;;5081974;28;20028;-72
2022/01/20 09:54:31;;;;;;;8.18;5.30;;;1.30;96.50;;;;;;5078548;28;20063;-72
2022/01/20 09:56:58;;;;;;;9.95;5.50;;;1.30;96.60;;;;;;5084438;28;20028;-72
2022/01/20 09:59:24;;;;;;;11.23;5.28;;;1.20;96.90;;;;;;5081060;28;20027;-72
2022/01/20 10:01:56;;;;;;;13.32;5.88;;;1.10;97.00;;;;;;5081646;28;20390;-72
2022/01/20 10:04:33;;;;;;;22.38;7.25;;;1.20;96.80;;;;;;5081737;28;20024;-72
2022/01/20 10:07:02;;;;;;;25.30;7.20;;;1.20;97.20;;;;;;5082757;28;20456;-72
2022/01/20 10:09:38;;;;;;;12.48;6.13;;;1.30;97.10;;;;;;5085636;28;20028;-72
2022/01/20 10:12:05;;;;;;;12.63;5.53;;;1.10;96.70;;;;;;5083070;28;20060;-72
2022/01/20 10:14:54;;;;;;;10.80;5.90;;;1.20;96.60;;;;;;5064080;28;21000;-72
2022/01/20 10:17:31;;;;;;;11.10;5.70;;;1.30;96.50;;;;;;5067574;28;20036;-72
2022/01/20 10:20:04;;;;;;;10.88;5.22;;;1.30;96.80;;;;;;5085234;28;20035;-72
2022/01/20 10:22:31;;;;;;;9.63;5.05;;;1.30;97.00;;;;;;5084869;28;20147;-72
2022/01/20 10:25:06;;;;;;;10.13;5.57;;;1.30;97.00;;;;;;5082772;28;20109;-72
2022/01/20 10:27:34;;;;;;;10.80;5.45;;;1.40;96.30;;;;;;5084556;28;20141;-72
2022/01/20 10:30:06;;;;;;;16.55;6.00;;;1.50;96.10;;;;;;5083341;28;20040;-72
2022/01/20 10:32:43;;;;;;;9.07;5.10;;;1.60;95.80;;;;;;5085582;28;20072;-72
2022/01/20 10:35:11;;;;;;;13.23;6.03;;;1.70;95.60;;;;;;5059229;28;20031;-72
2022/01/20 10:37:39;;;;;;;10.57;5.65;;;1.80;95.40;;;;;;5066496;28;20032;-72
2022/01/20 10:40:13;;;;;;;8.57;4.85;;;1.90;95.10;;;;;;5084535;28;20073;-72
2022/01/20 10:42:44;;;;;;;13.02;6.32;;;2.00;95.50;;;;;;5081762;28;20036;-72
2022/01/20 10:45:25;;;;;;;10.40;6.13;;;2.00;95.10;;;;;;5084530;28;20419;-72
2022/01/20 10:47:54;;;;;;;12.27;6.25;;;2.10;95.10;;;;;;5084196;28;20032;-72
2022/01/20 10:50:29;;;;;;;12.32;7.00;;;2.30;94.90;;;;;;5081426;28;20031;-72
2022/01/20 10:52:56;;;;;;;11.15;6.15;;;2.50;94.80;;;;;;5084277;28;20059;-72
2022/01/20 10:55:34;;;;;;;11.00;6.43;;;2.50;94.40;;;;;;5083959;28;20028;-72
2022/01/20 10:58:16;;;;;;;13.85;5.80;;;2.70;94.50;;;;;;5084417;28;20059;-72
2022/01/20 11:00:48;;;;;;;10.77;6.25;;;2.70;94.20;;;;;;5083785;28;20054;-72
2022/01/20 11:03:14;;;;;;;11.52;6.05;;;2.70;93.80;;;;;;5073989;28;20031;-72
2022/01/20 11:05:44;;;;;;;11.43;5.50;;;2.90;94.00;;;;;;5085222;28;20023;-72
2022/01/20 11:08:09;;;;;;;9.52;6.07;;;3.00;94.00;;;;;;5086515;28;20043;-72
2022/01/20 11:10:39;;;;;;;11.88;5.90;;;3.00;93.80;;;;;;5086567;28;20478;-72
2022/01/20 11:13:04;;;;;;;12.40;5.75;;;3.20;93.60;;;;;;5085516;28;20485;-72
2022/01/20 11:15:31;;;;;;;11.20;6.25;;;3.30;93.50;;;;;;5086888;28;20043;-73
2022/01/20 11:17:58;;;;;;;13.30;6.68;;;3.40;93.50;;;;;;5087125;28;20071;-72
2022/01/20 11:20:28;;;;;;;11.30;6.07;;;3.50;93.20;;;;;;5087426;28;20032;-73
2022/01/20 11:22:58;;;;;;;11.57;5.75;;;3.50;92.90;;;;;;5085504;28;20098;-73
2022/01/20 11:25:26;;;;;;;11.63;6.90;;;3.50;93.10;;;;;;5087422;28;20032;-72
2022/01/20 11:28:07;;;;;;;13.88;6.40;;;3.60;93.20;;;;;;5086338;28;20044;-73
2022/01/20 11:30:35;;;;;;;15.20;7.53;;;3.70;93.30;;;;;;5083514;28;20039;-72
2022/01/20 11:33:05;;;;;;;11.80;6.25;;;3.80;93.20;;;;;;5084837;28;20039;-72
2022/01/20 11:35:50;;;;;;;13.68;6.70;;;3.80;92.90;;;;;;5085080;28;20092;-72
2022/01/20 11:38:22;;;;;;;10.35;6.22;;;4.00;93.20;;;;;;5085590;28;20031;-73
2022/01/20 11:40:57;;;;;;;13.93;7.88;;;4.20;92.70;;;;;;5086198;28;20081;-72
2022/01/20 11:43:32;;;;;;;13.20;7.82;;;4.20;92.60;;;;;;5084155;28;20478;-72
2022/01/20 11:46:14;;;;;;;22.88;10.70;;;4.30;92.80;;;;;;5081889;28;20024;-73
2022/01/20 11:48:53;;;;;;;22.90;12.77;;;4.40;92.80;;;;;;5066413;28;20030;-72
2022/01/20 11:51:20;;;;;;;17.10;9.55;;;4.60;92.90;;;;;;5083993;28;20020;-72
2022/01/20 11:54:24;;;;;;;12.70;8.32;;;4.80;92.60;;;;;;5063158;28;20031;-73
2022/01/20 11:56:50;;;;;;;12.95;7.10;;;5.10;92.30;;;;;;5068004;28;20040;-72
2022/01/20 11:59:16;;;;;;;12.13;6.63;;;5.20;92.10;;;;;;5084771;28;20032;-72
2022/01/20 12:01:48;;;;;;;14.20;7.30;;;5.10;91.90;;;;;;5078293;28;20049;-72
2022/01/20 12:04:14;;;;;;;15.68;8.60;;;5.00;91.70;;;;;;5083655;28;20024;-72
2022/01/20 12:06:47;;;;;;;17.17;9.60;;;5.00;91.60;;;;;;5077745;28;20085;-73
2022/01/20 12:09:14;;;;;;;12.65;7.68;;;5.10;91.50;;;;;;5084375;28;20048;-72
2022/01/20 12:11:44;;;;;;;13.73;8.55;;;5.00;91.60;;;;;;5086562;28;20343;-73
2022/01/20 12:14:10;;;;;;;12.70;6.82;;;5.10;91.60;;;;;;5061839;28;20087;-73
2022/01/20 12:16:38;;;;;;;13.23;7.90;;;5.20;91.30;;;;;;5067876;28;20153;-73
2022/01/20 12:19:08;;;;;;;17.27;8.48;;;5.30;91.20;;;;;;5083659;28;20028;-73
2022/01/20 12:21:36;;;;;;;12.00;7.82;;;5.10;90.80;;;;;;5085639;28;20374;-73
2022/01/20 12:24:02;;;;;;;13.30;8.02;;;5.40;91.40;;;;;;5085531;28;20032;-72
2022/01/20 12:26:35;;;;;;;20.05;8.55;;;5.40;91.30;;;;;;5085788;28;20032;-72
2022/01/20 12:29:09;;;;;;;24.38;7.90;;;5.50;91.10;;;;;;5085128;28;20581;-71
2022/01/20 12:31:51;;;;;;;15.38;7.85;;;5.60;91.00;;;;;;5087073;28;20028;-70
2022/01/20 12:34:19;;;;;;;14.73;6.75;;;5.50;91.10;;;;;;5081593;28;20020;-70
2022/01/20 12:36:56;;;;;;;22.77;10.02;;;5.60;90.80;;;;;;5082114;28;20081;-71
2022/01/20 12:39:28;;;;;;;12.85;8.05;;;5.70;90.90;;;;;;5082837;28;20506;-70
2022/01/20 12:41:58;;;;;;;28.52;16.58;;;5.70;90.70;;;;;;5082110;28;20040;-71
2022/01/20 12:44:35;;;;;;;42.88;23.27;;;5.60;90.70;;;;;;5081040;28;20081;-71
2022/01/20 12:47:01;;;;;;;29.38;15.43;;;5.80;90.60;;;;;;5081521;28;20519;-71
2022/01/20 12:49:26;;;;;;;14.02;7.68;;;5.80;90.30;;;;;;5079798;28;20023;-71
2022/01/20 12:51:54;;;;;;;20.35;8.13;;;5.60;90.40;;;;;;5076653;28;20040;-71
2022/01/20 12:54:31;;;;;;;63.50;33.63;;;5.60;90.60;;;;;;5081824;28;20031;-71
2022/01/20 12:57:05;;;;;;;21.60;11.52;;;5.70;90.40;;;;;;5082700;28;20383;-71
2022/01/20 12:59:34;;;;;;;13.55;7.50;;;5.80;90.00;;;;;;5079226;28;20134;-71
2022/01/20 13:02:06;;;;;;;16.67;7.00;;;5.70;89.80;;;;;;5082434;28;20173;-71
2022/01/20 13:04:33;;;;;;;15.27;9.10;;;5.80;90.20;;;;;;5080708;28;20035;-71
2022/01/20 13:07:02;;;;;;;13.90;8.70;;;5.80;90.20;;;;;;5082668;28;20606;-70
2022/01/20 13:09:43;;;;;;;17.40;8.60;;;5.80;90.00;;;;;;5081887;28;20061;-72
2022/01/20 13:12:11;;;;;;;41.85;21.45;;;5.80;89.90;;;;;;5079995;28;20257;-71
2022/01/20 13:14:47;;;;;;;60.20;28.95;;;5.80;90.20;;;;;;5082184;28;20123;-71
2022/01/20 13:17:19;;;;;;;125.28;55.28;;;5.90;90.20;;;;;;5078919;28;20028;-73
2022/01/20 13:19:47;;;;;;;47.40;22.88;;;5.90;89.90;;;;;;5081699;28;20513;-73
2022/01/20 13:22:53;;;;;;;26.30;13.18;;;5.90;89.40;;;;;;5081284;28;20040;-72
2022/01/20 13:25:21;;;;;;;16.88;10.23;;;6.00;89.70;;;;;;5077023;28;20055;-73
2022/01/20 13:27:51;;;;;;;114.35;62.22;;;5.90;89.60;;;;;;5077704;28;20043;-73
2022/01/20 13:30:31;;;;;;;21.08;13.43;;;6.10;90.00;;;;;;5081914;28;20871;-73
2022/01/20 13:32:58;;;;;;;15.98;9.32;;;6.10;89.50;;;;;;5081214;28;20024;-72
2022/01/20 13:35:24;;;;;;;42.70;27.63;;;6.20;89.50;;;;;;5080614;28;20036;-73
2022/01/20 13:38:01;;;;;;;31.65;19.50;;;6.30;89.50;;;;;;5081829;28;20085;-73
2022/01/20 13:40:27;;;;;;;50.90;35.28;;;6.40;89.50;;;;;;5082115;28;20024;-73
2022/01/20 13:45:44;;;;;;;42.60;30.55;;;6.30;88.60;;;;;;5080815;28;20133;-73
2022/01/20 13:48:12;;;;;;;23.60;13.13;;;6.40;89.00;;;;;;5063326;28;20056;-73
2022/01/20 13:50:41;;;;;;;20.80;11.57;;;6.30;88.40;;;;;;5079999;28;20113;-73
2022/01/20 13:53:28;;;;;;;19.63;9.40;;;6.20;88.70;;;;;;5081080;28;20031;-73
2022/01/20 13:55:58;;;;;;;15.88;9.82;;;6.30;89.00;;;;;;5063631;28;20032;-72
2022/01/20 13:58:33;;;;;;;16.02;10.10;;;6.50;88.40;;;;;;5080131;28;20032;-73
2022/01/20 14:01:05;;;;;;;18.92;11.57;;;6.60;87.90;;;;;;5081166;28;20060;-73
2022/01/20 14:03:31;;;;;;;24.10;16.02;;;6.60;88.10;;;;;;5061387;28;20386;-73
2022/01/20 14:05:56;;;;;;;24.23;15.90;;;6.60;88.00;;;;;;5082186;28;20039;-73
2022/01/20 14:08:26;;;;;;;15.60;10.43;;;6.60;87.60;;;;;;5082339;28;20043;-72